Time;durP1;ratioP1;P1;durP2;ratioP2;P2;SDS_P1;SDS_P2;PMS_P1;PMS_P2;Temp;Humidity;BMP_temperature;BMP_pressure;BME280_temperature;BME280_humidity;BME280_pressure;Samples;Min_cycle;Max_cycle;Signal;HPM_P1;HPM_P2
2023/08/26 00:01:32;;;;;;;8.30;5.78;;;16.30;99.90;;;;;;5069893;28;20052;-63
2023/08/26 00:03:58;;;;;;;16.08;6.15;;;16.30;99.90;;;;;;5075027;28;20402;-63
2023/08/26 00:06:24;;;;;;;12.52;6.82;;;16.40;99.90;;;;;;5061585;28;20052;-65
2023/08/26 00:08:52;;;;;;;17.25;7.20;;;16.40;99.90;;;;;;5062645;28;20039;-64
2023/08/26 00:11:18;;;;;;;19.25;7.50;;;16.30;99.90;;;;;;5065293;28;20074;-64
2023/08/26 00:13:43;;;;;;;8.02;4.60;;;16.50;99.90;;;;;;5065694;28;20040;-63
2023/08/26 00:16:11;;;;;;;5.22;4.20;;;16.50;99.90;;;;;;5047291;28;20486;-63
2023/08/26 00:18:37;;;;;;;5.22;3.90;;;16.50;99.90;;;;;;5066199;28;20045;-63
2023/08/26 00:21:03;;;;;;;7.20;3.50;;;16.50;99.90;;;;;;5059540;28;20128;-63
2023/08/26 00:23:31;;;;;;;7.78;4.38;;;16.60;99.90;;;;;;5064636;28;20084;-63
2023/08/26 00:25:57;;;;;;;16.45;6.53;;;16.60;99.90;;;;;;5078446;28;20490;-63
2023/08/26 00:28:23;;;;;;;12.32;6.63;;;16.60;99.90;;;;;;5061358;28;20128;-63
2023/08/26 00:30:59;;;;;;;12.32;7.03;;;16.60;99.90;;;;;;5048390;28;20150;-63
2023/08/26 00:33:28;;;;;;;11.25;7.45;;;16.50;99.90;;;;;;5054525;28;20037;-63
2023/08/26 00:35:54;;;;;;;14.73;8.43;;;16.60;99.90;;;;;;5038975;28;20373;-63
2023/08/26 00:38:20;;;;;;;17.30;10.43;;;16.50;99.90;;;;;;5064958;28;20121;-63
2023/08/26 00:40:46;;;;;;;14.02;9.68;;;16.50;99.90;;;;;;5064690;28;20041;-62
2023/08/26 00:43:11;;;;;;;17.02;10.13;;;16.50;99.90;;;;;;5057550;28;20286;-62
2023/08/26 00:45:41;;;;;;;12.45;9.35;;;16.50;99.90;;;;;;5046496;28;20041;-62
2023/08/26 00:48:08;;;;;;;12.80;8.85;;;16.60;99.90;;;;;;5055494;28;20494;-63
2023/08/26 00:50:35;;;;;;;26.55;9.88;;;16.50;99.90;;;;;;5050973;28;20041;-63
2023/08/26 00:53:02;;;;;;;14.77;9.55;;;16.50;99.90;;;;;;5069467;28;20123;-63
2023/08/26 00:55:28;;;;;;;11.57;8.20;;;16.50;99.90;;;;;;5052959;28;20049;-63
2023/08/26 00:57:55;;;;;;;18.50;8.35;;;16.50;99.90;;;;;;5068851;28;20410;-63
2023/08/26 01:00:22;;;;;;;12.63;7.40;;;16.50;99.90;;;;;;5054833;28;20037;-63
2023/08/26 01:02:49;;;;;;;8.70;6.22;;;16.60;99.90;;;;;;5059639;28;20045;-63
2023/08/26 01:05:15;;;;;;;8.75;5.90;;;16.50;99.90;;;;;;5064929;28;21330;-62
2023/08/26 01:07:41;;;;;;;10.95;6.75;;;16.50;99.90;;;;;;5067900;28;20040;-63
2023/08/26 01:10:07;;;;;;;8.20;5.80;;;16.50;99.90;;;;;;5069825;28;20522;-63
2023/08/26 01:12:44;;;;;;;9.27;5.45;;;16.50;99.90;;;;;;5069280;28;20051;-63
2023/08/26 01:15:12;;;;;;;7.43;5.18;;;16.50;99.90;;;;;;5068732;28;20063;-62
2023/08/26 01:17:40;;;;;;;10.45;5.32;;;16.50;99.90;;;;;;5065264;28;20052;-63
2023/08/26 01:20:07;;;;;;;8.38;4.90;;;16.40;99.90;;;;;;5068010;28;20192;-63
2023/08/26 01:22:35;;;;;;;4.60;3.95;;;16.30;99.90;;;;;;5069366;28;20415;-63
2023/08/26 01:25:01;;;;;;;8.65;4.57;;;16.30;99.90;;;;;;5068194;28;20430;-63
2023/08/26 01:27:27;;;;;;;9.07;4.38;;;16.30;99.90;;;;;;5069519;28;20068;-63
2023/08/26 01:29:53;;;;;;;4.20;3.58;;;16.20;99.90;;;;;;5050719;28;20126;-63
2023/08/26 01:32:49;;;;;;;5.63;3.83;;;16.20;99.90;;;;;;5078021;28;20036;-63
2023/08/26 01:35:27;;;;;;;6.00;3.88;;;16.20;99.90;;;;;;5050637;28;20048;-63
2023/08/26 01:37:54;;;;;;;6.40;3.97;;;16.20;99.90;;;;;;5067566;28;20036;-62
2023/08/26 01:40:22;;;;;;;6.82;4.38;;;16.20;99.90;;;;;;5069101;28;20056;-63
2023/08/26 01:42:49;;;;;;;4.18;3.70;;;16.10;99.90;;;;;;5068412;28;20098;-62
2023/08/26 01:45:15;;;;;;;4.82;4.38;;;16.10;99.90;;;;;;5068566;28;20115;-63
2023/08/26 01:47:40;;;;;;;5.07;4.32;;;16.00;99.90;;;;;;5068921;28;20573;-62
2023/08/26 01:50:06;;;;;;;11.05;3.95;;;16.00;99.90;;;;;;5067335;28;20449;-63
2023/08/26 01:52:32;;;;;;;7.45;4.03;;;15.90;99.90;;;;;;5069008;28;20045;-62
2023/08/26 01:54:57;;;;;;;5.97;3.90;;;15.80;99.90;;;;;;5067965;28;20063;-62
2023/08/26 01:57:23;;;;;;;6.35;4.13;;;15.70;99.90;;;;;;5068907;28;20545;-62
2023/08/26 01:59:49;;;;;;;6.55;3.90;;;15.80;99.90;;;;;;5066614;28;20105;-63
2023/08/26 02:02:14;;;;;;;4.28;3.85;;;15.70;99.90;;;;;;5053925;28;20124;-63
2023/08/26 02:04:40;;;;;;;7.25;3.67;;;15.60;99.90;;;;;;5081018;28;20048;-63
2023/08/26 02:07:06;;;;;;;6.05;3.10;;;15.70;99.90;;;;;;5061835;28;20124;-63
2023/08/26 02:09:33;;;;;;;4.55;3.17;;;15.50;99.90;;;;;;5068346;28;20044;-63
2023/08/26 02:11:58;;;;;;;4.28;2.58;;;15.50;99.90;;;;;;5054230;28;20052;-63
2023/08/26 02:14:24;;;;;;;9.20;3.65;;;15.50;99.90;;;;;;5048501;28;20052;-63
2023/08/26 02:16:50;;;;;;;4.53;3.08;;;15.50;99.90;;;;;;5067031;28;20676;-63
2023/08/26 02:19:15;;;;;;;6.65;2.95;;;15.50;99.90;;;;;;5068550;28;20056;-63
2023/08/26 02:21:41;;;;;;;7.05;2.50;;;15.50;99.90;;;;;;5070166;28;20042;-63
2023/08/26 02:24:07;;;;;;;5.60;2.70;;;15.40;99.90;;;;;;5067311;28;20040;-63
2023/08/26 02:26:33;;;;;;;8.43;2.78;;;15.40;99.90;;;;;;5068430;28;20039;-63
2023/08/26 02:28:59;;;;;;;3.88;2.72;;;15.40;99.90;;;;;;5067222;28;20045;-63
2023/08/26 02:31:24;;;;;;;6.28;2.70;;;15.30;99.90;;;;;;5067517;28;20090;-63
2023/08/26 02:33:50;;;;;;;5.65;2.95;;;15.30;99.90;;;;;;5048746;28;20407;-63
2023/08/26 02:36:16;;;;;;;5.60;2.65;;;15.30;99.90;;;;;;5044144;28;20148;-63
2023/08/26 02:38:41;;;;;;;5.20;2.38;;;15.20;99.90;;;;;;5056607;28;20143;-63
2023/08/26 02:41:07;;;;;;;3.88;2.28;;;15.20;99.90;;;;;;5063675;28;20095;-63
2023/08/26 02:43:33;;;;;;;6.45;2.65;;;15.20;99.90;;;;;;5049675;28;20045;-63
2023/08/26 02:45:59;;;;;;;3.55;2.30;;;15.20;99.90;;;;;;5067480;28;20045;-63
2023/08/26 02:48:25;;;;;;;3.85;2.40;;;15.20;99.90;;;;;;5067280;28;20044;-63
2023/08/26 02:50:58;;;;;;;3.80;2.33;;;15.10;99.90;;;;;;5067001;28;20105;-62
2023/08/26 02:53:25;;;;;;;11.18;2.33;;;15.10;99.90;;;;;;5049479;28;20124;-64
2023/08/26 02:55:55;;;;;;;3.05;2.20;;;15.10;99.90;;;;;;5066765;28;20048;-63
2023/08/26 02:58:21;;;;;;;2.10;1.90;;;15.10;99.90;;;;;;5067370;28;20127;-63
2023/08/26 03:00:47;;;;;;;4.13;2.00;;;15.00;99.90;;;;;;5067410;28;20491;-63
2023/08/26 03:03:14;;;;;;;4.13;2.22;;;14.90;99.90;;;;;;5066296;28;20494;-63
2023/08/26 03:05:40;;;;;;;4.20;2.17;;;14.90;99.90;;;;;;5049918;28;20491;-63
2023/08/26 03:08:06;;;;;;;4.10;2.03;;;14.90;99.90;;;;;;5066456;28;20047;-63
2023/08/26 03:10:32;;;;;;;4.55;2.00;;;14.90;99.90;;;;;;5066860;28;20550;-63
2023/08/26 03:12:58;;;;;;;5.55;1.92;;;14.80;99.90;;;;;;5060405;28;20053;-63
2023/08/26 03:15:27;;;;;;;4.40;1.98;;;14.70;99.90;;;;;;5067480;28;20208;-63
2023/08/26 03:17:53;;;;;;;4.63;2.05;;;14.80;99.90;;;;;;5066474;28;20445;-63
2023/08/26 03:20:19;;;;;;;4.07;1.80;;;14.70;99.90;;;;;;5067063;28;20041;-63
2023/08/26 03:22:45;;;;;;;5.60;2.00;;;14.70;99.90;;;;;;5069778;28;20471;-63
2023/08/26 03:25:11;;;;;;;2.72;1.90;;;14.60;99.90;;;;;;5049090;28;20052;-63
2023/08/26 03:27:37;;;;;;;3.30;1.60;;;14.60;99.90;;;;;;5067068;28;20097;-63
2023/08/26 03:30:03;;;;;;;2.50;1.90;;;14.60;99.90;;;;;;5081661;28;20470;-63
2023/08/26 03:32:29;;;;;;;6.53;1.88;;;14.60;99.90;;;;;;5082486;28;20045;-63
2023/08/26 03:34:54;;;;;;;5.07;1.88;;;14.60;99.90;;;;;;5078218;28;20051;-63
2023/08/26 03:37:20;;;;;;;3.38;1.77;;;14.50;99.90;;;;;;5067315;28;20040;-63
2023/08/26 03:39:46;;;;;;;3.72;1.77;;;14.40;99.90;;;;;;5066986;28;20040;-63
2023/08/26 03:42:12;;;;;;;3.70;1.80;;;14.40;99.90;;;;;;5048550;28;20049;-63
2023/08/26 03:44:37;;;;;;;4.22;2.05;;;14.40;99.90;;;;;;5063674;28;20347;-63
2023/08/26 03:47:03;;;;;;;5.05;1.90;;;14.40;99.90;;;;;;5031270;28;20068;-63
2023/08/26 03:49:30;;;;;;;2.20;1.33;;;14.30;99.90;;;;;;5048756;28;20063;-63
2023/08/26 03:51:55;;;;;;;2.20;1.33;;;14.30;99.90;;;;;;5065764;28;20122;-63
2023/08/26 03:54:21;;;;;;;2.50;1.42;;;14.30;99.90;;;;;;5049713;28;20830;-63
2023/08/26 03:56:47;;;;;;;3.40;1.70;;;14.30;99.90;;;;;;5066083;28;20051;-63
2023/08/26 03:59:13;;;;;;;3.38;1.80;;;14.20;99.90;;;;;;5067120;28;20110;-63
2023/08/26 04:01:39;;;;;;;4.60;1.58;;;14.20;99.90;;;;;;5066480;28;20036;-63
2023/08/26 04:04:05;;;;;;;2.88;1.42;;;14.20;99.90;;;;;;5071006;28;20047;-63
2023/08/26 04:06:31;;;;;;;2.40;1.50;;;14.20;99.90;;;;;;5073883;28;20044;-63
2023/08/26 04:08:57;;;;;;;2.35;1.50;;;14.20;99.90;;;;;;5065336;28;20110;-63
2023/08/26 04:11:23;;;;;;;2.30;1.42;;;14.10;99.90;;;;;;5066847;28;20036;-63
2023/08/26 04:13:48;;;;;;;1.85;1.42;;;14.10;99.90;;;;;;5066601;28;20041;-63
2023/08/26 04:16:15;;;;;;;1.90;1.27;;;14.10;99.90;;;;;;5067489;28;20631;-63
2023/08/26 04:18:45;;;;;;;4.20;1.20;;;14.10;99.90;;;;;;5031521;28;20172;-63
2023/08/26 04:21:11;;;;;;;2.35;1.42;;;14.00;99.90;;;;;;5066127;28;20045;-63
2023/08/26 04:23:37;;;;;;;3.15;1.27;;;14.00;99.90;;;;;;5068142;28;20051;-63
2023/08/26 04:26:02;;;;;;;2.40;1.58;;;14.00;99.90;;;;;;5035281;28;20048;-63
2023/08/26 04:28:29;;;;;;;3.40;1.30;;;14.00;99.90;;;;;;5070325;28;20501;-63
2023/08/26 04:30:55;;;;;;;3.65;1.40;;;13.90;99.90;;;;;;5069082;28;20158;-63
2023/08/26 04:33:20;;;;;;;2.55;1.38;;;13.90;99.90;;;;;;5070880;28;20044;-63
2023/08/26 04:35:46;;;;;;;5.55;2.08;;;13.90;99.90;;;;;;5068995;28;20089;-63
2023/08/26 04:38:13;;;;;;;2.17;1.52;;;13.80;99.90;;;;;;5069917;28;20128;-63
2023/08/26 04:40:41;;;;;;;5.32;1.42;;;13.80;99.90;;;;;;5086002;28;20123;-63
2023/08/26 04:43:10;;;;;;;4.65;1.70;;;13.80;99.90;;;;;;5069086;28;20053;-63
2023/08/26 04:45:37;;;;;;;5.40;1.50;;;13.80;99.90;;;;;;5069921;28;20418;-63
2023/08/26 04:48:07;;;;;;;3.42;1.38;;;13.80;99.90;;;;;;5068133;28;20048;-63
2023/08/26 04:50:34;;;;;;;2.50;1.60;;;13.80;99.90;;;;;;5069638;28;20044;-63
2023/08/26 04:53:00;;;;;;;3.05;1.35;;;13.70;99.90;;;;;;5068845;28;20123;-62
2023/08/26 04:55:26;;;;;;;4.13;2.03;;;13.70;99.90;;;;;;5055417;28;20050;-63
2023/08/26 04:57:52;;;;;;;2.13;1.90;;;13.70;99.90;;;;;;5070110;28;20487;-62
2023/08/26 05:00:18;;;;;;;3.53;2.00;;;13.80;99.90;;;;;;5068383;28;20521;-63
2023/08/26 05:02:45;;;;;;;3.00;2.20;;;13.80;99.90;;;;;;5070043;28;20080;-63
2023/08/26 05:05:10;;;;;;;2.72;2.08;;;13.80;99.90;;;;;;5068821;28;20078;-63
2023/08/26 05:07:36;;;;;;;2.78;2.10;;;13.80;99.90;;;;;;5069575;28;20127;-63
2023/08/26 05:10:07;;;;;;;6.72;2.03;;;13.90;99.90;;;;;;5068604;28;20063;-63
2023/08/26 05:12:32;;;;;;;3.47;2.00;;;13.80;99.90;;;;;;5051545;28;20036;-63
2023/08/26 05:14:58;;;;;;;2.05;1.75;;;13.90;99.90;;;;;;5034828;28;20052;-63
2023/08/26 05:17:24;;;;;;;1.85;1.75;;;14.00;99.90;;;;;;5068695;28;20040;-63
2023/08/26 05:19:50;;;;;;;4.65;2.20;;;14.00;99.90;;;;;;5069487;28;20040;-63
2023/08/26 05:22:16;;;;;;;6.13;2.03;;;14.10;99.90;;;;;;5054493;28;20570;-63
2023/08/26 05:24:41;;;;;;;4.38;2.20;;;14.10;99.90;;;;;;5083351;28;20135;-63
2023/08/26 05:27:07;;;;;;;3.40;2.15;;;14.20;99.90;;;;;;5068071;28;20403;-63
2023/08/26 05:29:33;;;;;;;2.72;2.38;;;14.20;99.90;;;;;;5068841;28;20490;-63
2023/08/26 05:31:59;;;;;;;9.52;2.38;;;14.20;99.90;;;;;;5050436;28;20352;-63
2023/08/26 05:34:25;;;;;;;4.40;2.20;;;14.30;99.90;;;;;;5069128;28;20103;-63
2023/08/26 05:36:51;;;;;;;4.60;2.22;;;14.30;99.90;;;;;;5069236;28;20036;-63
2023/08/26 05:39:16;;;;;;;4.75;2.22;;;14.30;99.90;;;;;;5067865;28;20056;-63
2023/08/26 05:41:42;;;;;;;3.15;2.45;;;14.40;99.90;;;;;;5069157;28;20041;-63
2023/08/26 05:44:08;;;;;;;5.63;2.88;;;14.40;99.90;;;;;;5068127;28;20037;-63
2023/08/26 05:46:34;;;;;;;2.40;2.20;;;14.40;99.90;;;;;;5050803;28;20032;-63
2023/08/26 05:49:00;;;;;;;4.22;2.03;;;14.40;99.90;;;;;;5067198;28;20083;-63
2023/08/26 05:51:26;;;;;;;3.20;2.28;;;14.50;99.90;;;;;;5051146;28;20056;-63
2023/08/26 05:53:53;;;;;;;3.17;2.20;;;14.50;99.90;;;;;;5050569;28;20806;-63
2023/08/26 05:56:19;;;;;;;9.38;2.60;;;14.50;99.90;;;;;;5068663;28;20040;-63
2023/08/26 05:58:45;;;;;;;5.53;2.50;;;14.50;99.90;;;;;;5050698;28;20044;-63
2023/08/26 06:01:10;;;;;;;4.00;2.63;;;14.60;99.90;;;;;;5068048;28;20048;-63
2023/08/26 06:03:36;;;;;;;8.82;2.47;;;14.60;99.90;;;;;;5050383;28;20620;-63
2023/08/26 06:06:03;;;;;;;4.88;2.65;;;14.70;99.90;;;;;;5067816;28;20071;-63
2023/08/26 06:08:29;;;;;;;3.00;2.28;;;14.80;99.90;;;;;;5069062;28;20047;-63
2023/08/26 06:10:56;;;;;;;6.53;2.65;;;14.90;99.90;;;;;;5066890;28;20048;-63
2023/08/26 06:13:22;;;;;;;3.08;2.42;;;15.00;99.90;;;;;;5050538;28;20483;-63
2023/08/26 06:15:57;;;;;;;4.35;2.55;;;15.10;99.90;;;;;;5067983;28;20095;-63
2023/08/26 06:18:23;;;;;;;4.40;2.20;;;15.20;99.90;;;;;;5049375;28;20064;-63
2023/08/26 06:20:50;;;;;;;3.25;2.30;;;15.30;99.90;;;;;;5067947;28;20044;-63
2023/08/26 06:23:17;;;;;;;6.57;2.53;;;15.40;99.90;;;;;;5066792;28;20052;-63
2023/08/26 06:25:53;;;;;;;3.92;2.30;;;15.40;99.90;;;;;;5033550;28;20572;-63
2023/08/26 06:28:20;;;;;;;3.70;2.40;;;15.50;99.90;;;;;;5067761;28;20045;-63
2023/08/26 06:30:47;;;;;;;8.82;2.28;;;15.50;99.90;;;;;;5067109;28;20049;-63
2023/08/26 06:33:13;;;;;;;2.53;2.33;;;15.60;99.90;;;;;;5050298;28;20094;-63
2023/08/26 06:35:39;;;;;;;6.80;2.30;;;15.60;99.90;;;;;;5066637;28;20513;-63
2023/08/26 06:38:05;;;;;;;6.97;2.22;;;15.60;99.90;;;;;;5050266;28;20521;-63
2023/08/26 06:40:31;;;;;;;6.00;2.22;;;15.60;99.90;;;;;;5066751;28;20086;-63
2023/08/26 06:43:03;;;;;;;2.28;2.17;;;15.70;99.90;;;;;;5067821;28;20112;-63
2023/08/26 06:45:30;;;;;;;5.18;2.45;;;15.80;99.90;;;;;;5048955;28;20126;-63
2023/08/26 06:47:57;;;;;;;7.20;2.22;;;15.80;99.90;;;;;;5082783;28;20123;-63
2023/08/26 06:50:23;;;;;;;4.15;2.38;;;15.90;99.90;;;;;;5049699;28;20479;-63
2023/08/26 06:52:49;;;;;;;2.65;2.30;;;15.90;99.90;;;;;;5065911;28;20166;-63
2023/08/26 06:55:18;;;;;;;4.05;1.80;;;16.10;99.90;;;;;;5068446;28;20102;-63
2023/08/26 06:57:44;;;;;;;5.20;2.00;;;16.20;99.90;;;;;;5065990;28;20617;-63
2023/08/26 07:00:11;;;;;;;5.97;1.80;;;16.20;99.90;;;;;;5050118;28;20522;-63
2023/08/26 07:02:37;;;;;;;5.22;2.10;;;16.30;99.90;;;;;;5066435;28;20091;-63
2023/08/26 07:05:04;;;;;;;6.20;2.00;;;16.30;99.90;;;;;;5049284;28;20479;-63
2023/08/26 07:07:29;;;;;;;4.30;1.70;;;16.30;99.90;;;;;;5049133;28;20194;-63
2023/08/26 07:09:55;;;;;;;4.18;1.65;;;16.50;99.90;;;;;;5066446;28;20521;-63
2023/08/26 07:12:21;;;;;;;2.33;1.40;;;16.50;99.90;;;;;;5067889;28;20044;-63
2023/08/26 07:14:47;;;;;;;1.80;1.50;;;16.50;99.90;;;;;;5066056;28;20036;-63
2023/08/26 07:17:15;;;;;;;3.42;1.52;;;16.50;99.90;;;;;;5067413;28;20495;-63
2023/08/26 07:19:41;;;;;;;2.45;1.40;;;16.40;99.90;;;;;;5065881;28;20040;-63
2023/08/26 07:22:07;;;;;;;2.67;1.60;;;16.50;99.90;;;;;;5048785;28;20403;-63
2023/08/26 07:24:33;;;;;;;3.20;1.58;;;16.40;99.90;;;;;;5048538;28;20063;-63
2023/08/26 07:26:58;;;;;;;4.00;1.70;;;16.50;99.90;;;;;;5066583;28;20540;-63
2023/08/26 07:29:24;;;;;;;3.88;1.67;;;16.40;99.90;;;;;;5066983;28;20106;-63
2023/08/26 07:31:50;;;;;;;5.13;1.80;;;16.40;99.90;;;;;;5065782;28;20078;-63
2023/08/26 07:34:15;;;;;;;3.53;2.13;;;16.30;99.90;;;;;;5049051;28;20052;-63
2023/08/26 07:36:41;;;;;;;2.33;1.67;;;16.30;99.90;;;;;;5065850;28;20050;-63
2023/08/26 07:39:08;;;;;;;4.57;2.03;;;16.40;99.90;;;;;;5066639;28;20045;-63
2023/08/26 07:41:35;;;;;;;2.53;1.45;;;16.40;99.90;;;;;;5065965;28;20056;-62
2023/08/26 07:44:00;;;;;;;7.63;2.78;;;16.50;99.90;;;;;;5048567;28;20052;-63
2023/08/26 07:46:26;;;;;;;3.95;2.10;;;16.50;99.90;;;;;;5066551;28;20041;-63
2023/08/26 07:48:52;;;;;;;4.47;2.10;;;16.50;99.90;;;;;;5065982;28;20483;-63
2023/08/26 07:51:18;;;;;;;5.88;2.13;;;16.50;99.90;;;;;;5067057;28;20142;-63
2023/08/26 07:53:44;;;;;;;4.20;2.25;;;16.60;99.90;;;;;;5065605;28;20413;-63
2023/08/26 07:56:10;;;;;;;4.45;2.13;;;16.70;99.90;;;;;;5066003;28;20047;-63
2023/08/26 07:58:36;;;;;;;4.35;2.15;;;16.70;99.90;;;;;;5045979;28;20044;-63
2023/08/26 08:01:02;;;;;;;4.10;2.10;;;16.70;99.90;;;;;;5056752;28;20029;-63
2023/08/26 08:03:27;;;;;;;4.88;2.05;;;16.70;99.90;;;;;;5065339;28;20490;-63
2023/08/26 08:05:53;;;;;;;5.25;1.90;;;16.70;99.90;;;;;;5065848;28;20047;-63
2023/08/26 08:08:19;;;;;;;3.83;2.28;;;16.70;99.90;;;;;;5047812;28;20114;-63
2023/08/26 08:10:44;;;;;;;5.55;2.53;;;16.80;99.90;;;;;;5061867;28;20051;-63
2023/08/26 08:13:10;;;;;;;6.50;3.03;;;16.90;99.90;;;;;;5066629;28;20891;-63
2023/08/26 08:15:36;;;;;;;4.68;3.30;;;17.00;99.90;;;;;;5068028;28;20040;-63
2023/08/26 08:18:03;;;;;;;6.10;4.60;;;17.10;99.90;;;;;;5045776;28;20046;-63
2023/08/26 08:20:30;;;;;;;7.30;4.15;;;17.00;99.90;;;;;;5059800;28;20052;-63
2023/08/26 08:22:56;;;;;;;6.65;4.78;;;17.10;99.90;;;;;;5064338;28;20085;-63
2023/08/26 08:25:22;;;;;;;7.05;4.80;;;17.30;99.90;;;;;;5043523;28;20045;-63
2023/08/26 08:27:48;;;;;;;5.95;5.32;;;17.50;99.90;;;;;;5057862;28;20503;-63
2023/08/26 08:30:14;;;;;;;9.27;5.00;;;17.50;99.90;;;;;;5062282;28;20054;-63
2023/08/26 08:32:40;;;;;;;6.72;5.03;;;17.50;99.90;;;;;;5064421;28;20052;-63
2023/08/26 08:35:07;;;;;;;12.10;5.65;;;17.50;99.90;;;;;;5062822;28;20076;-63
2023/08/26 08:37:33;;;;;;;9.00;6.15;;;17.50;99.90;;;;;;5027645;28;20045;-63
2023/08/26 08:39:59;;;;;;;10.80;7.68;;;17.50;99.90;;;;;;5062228;28;20052;-63
2023/08/26 08:42:25;;;;;;;11.68;7.57;;;17.50;99.90;;;;;;5061006;28;20083;-63
2023/08/26 08:44:51;;;;;;;15.70;7.50;;;17.60;99.90;;;;;;5061938;28;20494;-63
2023/08/26 08:47:17;;;;;;;13.05;8.23;;;17.70;99.90;;;;;;5061295;28;20120;-63
2023/08/26 08:49:44;;;;;;;12.85;9.13;;;17.90;99.90;;;;;;5049945;28;20144;-63
2023/08/26 08:52:10;;;;;;;12.23;8.75;;;18.00;99.90;;;;;;5048624;28;20443;-63
2023/08/26 08:54:37;;;;;;;10.43;8.35;;;18.30;99.90;;;;;;5053251;28;20052;-63
2023/08/26 08:57:03;;;;;;;11.25;8.18;;;18.60;99.90;;;;;;5064659;28;20041;-63
2023/08/26 08:59:37;;;;;;;12.48;7.75;;;18.80;99.90;;;;;;5062517;28;20098;-63
2023/08/26 09:02:04;;;;;;;11.73;7.70;;;19.10;99.90;;;;;;5063550;28;20087;-62
2023/08/26 09:04:30;;;;;;;10.70;7.25;;;19.20;99.90;;;;;;5066206;28;20083;-63
2023/08/26 09:06:56;;;;;;;11.20;6.95;;;19.30;99.90;;;;;;5066088;28;20475;-62
2023/08/26 09:09:27;;;;;;;9.70;6.80;;;19.40;99.90;;;;;;5044738;28;20044;-63
2023/08/26 09:11:53;;;;;;;9.93;6.43;;;19.50;99.90;;;;;;5068516;28;20041;-63
2023/08/26 09:14:19;;;;;;;10.27;6.50;;;19.70;99.90;;;;;;5070394;28;20852;-63
2023/08/26 09:16:45;;;;;;;12.20;6.97;;;19.80;99.90;;;;;;5050196;28;20124;-63
2023/08/26 09:19:12;;;;;;;13.20;7.45;;;19.90;99.90;;;;;;5051458;28;20087;-62
2023/08/26 09:21:44;;;;;;;14.73;7.32;;;20.00;99.90;;;;;;5069525;28;20127;-62
2023/08/26 09:24:14;;;;;;;9.38;6.93;;;20.20;99.90;;;;;;5066693;28;20056;-62
2023/08/26 09:26:41;;;;;;;9.15;7.32;;;20.30;99.90;;;;;;5069833;28;20493;-63
2023/08/26 09:29:20;;;;;;;10.90;7.28;;;20.30;99.90;;;;;;5067814;28;20049;-63
2023/08/26 09:31:47;;;;;;;11.38;7.65;;;20.20;99.90;;;;;;5056755;28;20493;-62
2023/08/26 09:34:22;;;;;;;11.65;8.30;;;20.10;99.90;;;;;;5083227;28;20586;-62
2023/08/26 09:36:48;;;;;;;9.15;7.50;;;20.20;99.90;;;;;;5067833;28;20618;-63
2023/08/26 09:39:15;;;;;;;10.30;6.40;;;20.30;99.90;;;;;;5051072;28;20055;-62
2023/08/26 09:41:47;;;;;;;12.85;7.32;;;20.50;99.90;;;;;;5049752;28;20080;-62
2023/08/26 09:44:15;;;;;;;13.18;7.60;;;20.50;99.90;;;;;;5068980;28;20465;-63
2023/08/26 09:46:42;;;;;;;14.32;8.80;;;20.50;99.90;;;;;;5067653;28;20047;-62
2023/08/26 09:49:12;;;;;;;11.52;7.85;;;20.60;99.90;;;;;;5066016;28;20470;-62
2023/08/26 09:51:37;;;;;;;15.57;7.68;;;20.70;99.90;;;;;;5067791;28;20245;-62
2023/08/26 09:54:07;;;;;;;10.18;7.18;;;20.80;99.90;;;;;;5068675;28;20518;-63
2023/08/26 09:56:32;;;;;;;7.95;7.00;;;20.80;99.90;;;;;;5068473;28;20048;-62
2023/08/26 09:58:58;;;;;;;6.20;5.60;;;20.70;99.90;;;;;;5067964;28;20044;-62
2023/08/26 10:01:25;;;;;;;8.65;5.50;;;20.70;99.90;;;;;;5068995;28;20063;-62
2023/08/26 10:03:57;;;;;;;7.47;4.55;;;20.70;98.90;;;;;;5064451;28;20043;-62
2023/08/26 10:06:25;;;;;;;5.78;4.10;;;20.70;99.90;;;;;;5043285;28;20048;-62
2023/08/26 10:08:57;;;;;;;7.70;4.65;;;20.70;99.90;;;;;;5053428;28;20316;-62
2023/08/26 10:11:27;;;;;;;7.03;4.10;;;20.80;99.90;;;;;;5037933;28;20044;-62
2023/08/26 10:13:55;;;;;;;7.05;3.63;;;21.00;99.90;;;;;;5046013;28;20052;-62
2023/08/26 10:16:23;;;;;;;5.13;3.70;;;20.70;99.60;;;;;;5063709;28;20098;-62
2023/08/26 10:18:54;;;;;;;3.45;3.10;;;20.60;99.90;;;;;;5065594;28;20048;-62
2023/08/26 10:21:20;;;;;;;6.05;3.60;;;20.50;99.20;;;;;;5065153;28;20351;-62
2023/08/26 10:23:48;;;;;;;4.20;3.20;;;20.50;92.70;;;;;;5066109;28;20471;-62
2023/08/26 10:26:15;;;;;;;4.80;3.20;;;20.60;98.30;;;;;;5064717;28;20101;-62
2023/08/26 10:28:42;;;;;;;4.60;3.42;;;20.70;97.60;;;;;;5065764;28;20393;-62
2023/08/26 10:31:08;;;;;;;8.57;3.50;;;20.60;97.10;;;;;;5047216;28;20052;-62
2023/08/26 10:34:02;;;;;;;8.02;3.53;;;20.60;98.80;;;;;;5066354;28;20083;-62
2023/08/26 10:36:28;;;;;;;4.88;3.35;;;20.70;90.10;;;;;;5050639;28;20099;-62
2023/08/26 10:39:10;;;;;;;4.90;2.90;;;20.90;97.90;;;;;;5063404;28;20079;-62
2023/08/26 10:41:36;;;;;;;5.45;3.30;;;20.90;93.90;;;;;;5026685;28;20049;-61
2023/08/26 10:44:03;;;;;;;4.45;2.83;;;20.90;93.90;;;;;;5054991;28;20052;-61
2023/08/26 10:46:52;;;;;;;5.50;2.70;;;20.90;92.50;;;;;;5039970;28;20044;-62
2023/08/26 10:49:22;;;;;;;8.55;2.45;;;21.00;97.00;;;;;;5050012;28;20044;-61
2023/08/26 10:51:48;;;;;;;3.35;2.40;;;21.20;92.60;;;;;;5061983;28;20036;-62
2023/08/26 10:54:14;;;;;;;3.47;2.00;;;21.20;79.70;;;;;;5050098;28;20133;-62
2023/08/26 10:56:56;;;;;;;4.55;2.22;;;21.10;75.70;;;;;;5051754;28;20039;-62
2023/08/26 10:59:37;;;;;;;5.72;2.50;;;20.90;77.50;;;;;;5033927;28;20071;-62
2023/08/26 11:02:07;;;;;;;6.93;2.78;;;20.70;74.60;;;;;;5066719;28;20438;-61
2023/08/26 11:04:44;;;;;;;5.97;2.50;;;20.70;83.50;;;;;;5047819;28;20052;-62
2023/08/26 11:07:17;;;;;;;3.55;2.45;;;20.70;84.60;;;;;;5053685;28;20044;-61
2023/08/26 11:09:43;;;;;;;2.88;0.43;;;20.60;78.40;;;;;;5040965;28;20041;-62
2023/08/26 11:12:24;;;;;;;1.35;0.25;;;19.90;1.80;;;;;;5075707;28;20489;-61
2023/08/26 11:14:50;;;;;;;3.17;0.63;;;18.80;28.60;;;;;;5066393;28;20068;-62
2023/08/26 11:17:17;;;;;;;0.50;0.47;;;18.10;52.50;;;;;;5036219;28;20047;-62
2023/08/26 11:19:43;;;;;;;1.75;0.73;;;17.60;77.10;;;;;;5065333;28;20041;-62
2023/08/26 11:22:09;;;;;;;2.15;0.57;;;17.10;88.40;;;;;;5040229;28;20041;-62
2023/08/26 11:24:34;;;;;;;0.20;0.20;;;16.70;91.10;;;;;;5052226;28;20766;-63
2023/08/26 11:27:01;;;;;;;1.20;0.77;;;16.30;97.00;;;;;;5051091;28;20052;-62
2023/08/26 11:29:26;;;;;;;1.42;0.40;;;16.10;98.80;;;;;;5054859;28;20114;-62
2023/08/26 11:31:54;;;;;;;0.77;0.28;;;15.90;99.90;;;;;;5061712;28;20782;-63
2023/08/26 11:34:26;;;;;;;0.20;0.20;;;15.90;99.90;;;;;;5054842;28;20056;-63
2023/08/26 11:36:53;;;;;;;1.20;0.38;;;15.90;99.90;;;;;;5055239;28;20124;-62
2023/08/26 11:39:20;;;;;;;2.83;0.50;;;16.00;99.90;;;;;;5057645;28;20142;-63
2023/08/26 11:41:46;;;;;;;1.90;0.40;;;16.30;99.90;;;;;;5065175;28;20077;-63
2023/08/26 11:44:15;;;;;;;2.47;0.40;;;16.60;99.90;;;;;;5046339;28;20041;-63
2023/08/26 11:46:42;;;;;;;0.50;0.50;;;17.00;99.90;;;;;;5028366;28;20047;-63
2023/08/26 11:49:11;;;;;;;1.73;0.40;;;17.30;99.90;;;;;;5063457;28;20037;-63
2023/08/26 11:51:40;;;;;;;0.68;0.35;;;17.60;99.90;;;;;;5052967;28;20055;-63
2023/08/26 11:54:06;;;;;;;1.00;0.37;;;17.90;99.90;;;;;;5057219;28;20087;-63
2023/08/26 11:56:32;;;;;;;0.45;0.35;;;18.20;99.90;;;;;;5039214;28;20044;-62
2023/08/26 11:58:58;;;;;;;0.30;0.30;;;18.40;99.90;;;;;;5069036;28;20053;-63
2023/08/26 12:01:25;;;;;;;0.45;0.38;;;18.60;99.90;;;;;;5064555;28;20048;-62
2023/08/26 12:03:51;;;;;;;1.08;0.40;;;18.70;99.90;;;;;;5034318;28;20045;-63
2023/08/26 12:06:18;;;;;;;3.50;0.50;;;18.80;99.90;;;;;;5050384;28;20120;-62
2023/08/26 12:08:53;;;;;;;1.45;0.57;;;19.00;99.90;;;;;;5053623;28;20492;-63
2023/08/26 12:11:20;;;;;;;0.82;0.50;;;19.10;99.90;;;;;;5052601;28;20123;-62
2023/08/26 12:13:46;;;;;;;0.57;0.43;;;19.00;96.80;;;;;;5060724;28;20457;-62
2023/08/26 12:16:14;;;;;;;1.13;0.60;;;19.00;96.50;;;;;;5047705;28;20041;-62
2023/08/26 12:18:41;;;;;;;0.95;0.50;;;18.90;99.40;;;;;;5051871;28;20119;-62
2023/08/26 12:21:07;;;;;;;1.08;0.70;;;18.90;99.90;;;;;;5062364;28;20045;-63
2023/08/26 12:23:33;;;;;;;0.95;0.65;;;19.10;99.40;;;;;;5057637;28;20064;-62
2023/08/26 12:26:10;;;;;;;2.58;1.00;;;19.30;99.90;;;;;;5061024;28;20045;-62
2023/08/26 12:28:39;;;;;;;3.50;1.63;;;19.50;99.90;;;;;;5044672;28;20037;-63
2023/08/26 12:31:05;;;;;;;3.80;1.23;;;19.60;98.50;;;;;;5037832;28;20041;-62
2023/08/26 12:33:31;;;;;;;2.92;1.20;;;19.40;96.10;;;;;;5044068;28;20124;-61
2023/08/26 12:35:57;;;;;;;2.03;1.20;;;19.30;94.80;;;;;;5064778;28;20036;-62
2023/08/26 12:38:23;;;;;;;3.60;1.48;;;19.10;97.80;;;;;;5066456;28;20118;-62
2023/08/26 12:40:49;;;;;;;3.08;1.20;;;19.00;99.90;;;;;;5039132;28;20044;-62
2023/08/26 12:43:16;;;;;;;2.75;1.17;;;19.00;99.90;;;;;;5065045;28;20044;-61
2023/08/26 12:45:42;;;;;;;2.45;1.00;;;18.90;99.90;;;;;;5069456;28;20526;-61